Nearby METAR Reports

 

KSJC - San Jose, California, USA
Distance from station: NE 14km
Actualización: 25/09/2022 02:53
Despejado
Despejado
 Viento del NO
Viento: NO 20 km/h
Temperatura: 28°C
Heat Index: 27°C
Rocío: 13°C
Humedad: 40%
Barómetro: 1014.6 hPa
Clouds: Despejado
Visibilidad: 16 km
2022/09/25 00:53 KSJC 250053Z 31011KT 10SM CLR 28/13 A2996 RMK AO2 SLP144 T02830128
KNUQ - Moffett Nas/Mtn, California, USA
Distance from station: N 14km
Actualización: 25/09/2022 03:15
Despejado
Despejado
 Viento del NNO
Viento: NNO 13 km/h, Racha: 24 km/h
Temperatura: 24°C
Rocío: 15°C
Humedad: 57%
Barómetro: 1014.6 hPa
Clouds: Despejado
Visibilidad: 16 km
2022/09/25 01:15 KNUQ 250115Z AUTO 33007G13KT 10SM CLR 24/15 A2996 RMK AO2
 
KPAO - Palo Alto, California, USA
Distance from station: NNO 23km
Actualización: 25/09/2022 02:47
Despejado
Despejado
 Viento del NNO
Viento: NNO 22 km/h, Racha: 33 km/h
Temperatura: 24°C
Rocío: 17°C
Humedad: 65%
Barómetro: 1014.9 hPa
Clouds: Despejado
Visibilidad: 16 km
2022/09/25 00:47 KPAO 250047Z 33012G18KT 10SM SKC 24/17 A2997
KRHV - San Jose/Reid, California, USA
Distance from station: ENE 19km
Actualización: 25/09/2022 02:50
Despejado
Despejado
 Viento del ONO
Viento: ONO 15 km/h
Temperatura: 30°C
Rocío: 12°C
Humedad: 33%
Barómetro: 1014.6 hPa
Clouds: Despejado
Visibilidad: 16 km
2022/09/25 00:50 KRHV 250050Z 30008KT 10SM SKC 30/12 A2996
 
KOAK - Oakland, California, USA
Distance from station: NNO 50km
Actualización: 25/09/2022 02:53
Few Clouds
Few Clouds
 Viento del ONO
Viento: ONO 20 km/h
Temperatura: 22°C
Rocío: 15°C
Humedad: 65%
Barómetro: 1015.2 hPa
Clouds: Few Clouds
Visibilidad: 16 km
Cloud details: Few Clouds 244 m
2022/09/25 00:53 KOAK 250053Z 30011KT 10SM FEW008 22/15 A2998 RMK AO2 SLP150 T02220150
KSQL - San Carlos Airpo, California, USA
Distance from station: NO 34km
Actualización: 25/09/2022 02:47
Despejado
Despejado
 Viento del O
Viento: O 15 km/h
Temperatura: 28°C
Rocío: 10°C
Humedad: 32%
Barómetro: 1014.9 hPa
Clouds: Despejado
Visibilidad: 16 km
2022/09/25 00:47 KSQL 250047Z 28008KT 10SM CLR 28/10 A2997
 
KSFO - San Francisco, California, USA
Distance from station: NO 49km
Actualización: 25/09/2022 02:56
Few Clouds
Few Clouds
 Viento del NO
Viento: NO 22 km/h
Temperatura: 22°C
Rocío: 14°C
Humedad: 61%
Barómetro: 1014.9 hPa
Clouds: Few Clouds
Visibilidad: 16 km
Cloud details: Few Clouds 122 m
2022/09/25 00:56 KSFO 250056Z 31012KT 10SM FEW004 22/14 A2997 RMK AO2 SLP148 T02170139
KE16 - San Martin, California, USA
Distance from station: ESE 43km
Actualización: 25/09/2022 03:15
Despejado
Despejado
 Viento del SE
Viento: SE 20 km/h
Temperatura: 22°C
Rocío: 13°C
Humedad: 57%
Barómetro: 1015.9 hPa
Clouds: Despejado
Visibilidad: 16 km
2022/09/25 01:15 KE16 250115Z AUTO 14011KT 10SM CLR 22/13 A3000 RMK AO2 PWINO PNO
 
KWVI - Watsonville, California, USA
Distance from station: SSE 44km
Actualización: 25/09/2022 03:12
Muy nuboso
Muy nuboso
 Viento del OSO
Viento: OSO 9 km/h
Temperatura: 14°C
Rocío: 14°C
Humedad: 100%
Barómetro: 1017.3 hPa
Clouds: Muy nuboso
Visibilidad: 14 km
Cloud details: Muy nuboso 183 m
2022/09/25 01:12 KWVI 250112Z AUTO 25005KT 9SM BKN006 14/14 A3004 RMK AO2 T01440139
KHAF - Half Moon Bay, California, USA
Distance from station: ONO 50km
Actualización: 25/09/2022 03:15
Niebla, Cubierto
Niebla, Cubierto
 Viento del S
Viento: S 11 km/h
Temperatura: 15°C
Rocío: 14°C
Humedad: 94%
Barómetro: 1016.6 hPa
Resumen: Niebla
Clouds: Cubierto
Visibilidad: 0.4 km
Cloud details: Cubierto 61 m
2022/09/25 01:15 KHAF 250115Z AUTO 17006KT M1/4SM FG OVC002 15/14 A3002 RMK AO2
 
KHWD - Hayward, California, USA
Distance from station: N 44km
Actualización: 25/09/2022 02:54
Despejado
Despejado
 Viento del O
Viento: O 15 km/h
Temperatura: 25°C
Rocío: 15°C
Humedad: 54%
Barómetro: 1014.6 hPa
Clouds: Despejado
Visibilidad: 16 km
2022/09/25 00:54 KHWD 250054Z 28008KT 10SM CLR 25/15 A2996 RMK AO2 SLP155 T02500150
KLVK - Livermore, California, USA
Distance from station: NNE 51km
Actualización: 25/09/2022 02:53
Despejado
Despejado
 Viento del O
Viento: O 7 km/h
Temperatura: 33°C
Rocío: 7°C
Humedad: 20%
Barómetro: 1014.2 hPa
Clouds: Despejado
Visibilidad: 16 km
2022/09/25 00:53 KLVK 250053Z 28004KT 10SM CLR 33/07 A2995 RMK AO2 SLP139 T03280072 $